createdAt,value
2018-01-02T00:00:33.445Z,0
2018-01-02T00:01:42.050Z,0
2018-01-02T00:02:50.896Z,0
2018-01-02T00:03:59.500Z,0
2018-01-02T00:05:08.110Z,0
2018-01-02T00:06:16.708Z,0
2018-01-02T00:07:25.308Z,0
2018-01-02T00:08:33.918Z,0
2018-01-02T00:09:42.517Z,0
2018-01-02T00:10:51.372Z,0
2018-01-02T00:11:59.985Z,0
2018-01-02T00:13:08.579Z,0
2018-01-02T00:14:17.167Z,0
2018-01-02T00:15:25.780Z,0
2018-01-02T00:16:34.384Z,0
2018-01-02T00:17:42.975Z,0
2018-01-02T00:18:51.583Z,0
2018-01-02T00:20:00.193Z,0
2018-01-02T00:21:08.781Z,0
2018-01-02T00:22:17.387Z,0
2018-01-02T00:23:25.985Z,0
2018-01-02T00:24:34.594Z,0
2018-01-02T00:25:43.197Z,0
2018-01-02T00:26:51.786Z,0
2018-01-02T00:28:00.395Z,0
2018-01-02T00:29:09.004Z,0
2018-01-02T00:30:17.595Z,0
2018-01-02T00:31:26.203Z,0
2018-01-02T00:32:34.813Z,0
2018-01-02T00:33:43.409Z,0
2018-01-02T00:34:52.266Z,0
2018-01-02T00:36:00.881Z,0
2018-01-02T00:37:09.477Z,0
2018-01-02T00:38:18.079Z,0
2018-01-02T00:39:26.670Z,0
2018-01-02T00:40:35.276Z,0
2018-01-02T00:41:43.889Z,0
2018-01-02T00:42:52.478Z,0
2018-01-02T00:44:01.076Z,0
2018-01-02T00:45:09.951Z,0
2018-01-02T00:46:18.549Z,0
2018-01-02T00:47:27.143Z,0
2018-01-02T00:48:35.753Z,0
2018-01-02T00:49:44.351Z,0
2018-01-02T00:50:52.939Z,0
2018-01-02T00:52:01.547Z,0
2018-01-02T00:53:10.147Z,0
2018-01-02T00:54:18.755Z,0
2018-01-02T00:55:27.350Z,0
2018-01-02T00:56:35.944Z,0
2018-01-02T00:57:44.818Z,0
2018-01-02T00:58:53.676Z,0
2018-01-02T01:00:02.268Z,0
2018-01-02T01:01:10.878Z,0
2018-01-02T01:02:19.484Z,0
2018-01-02T01:03:28.075Z,0
2018-01-02T01:04:36.684Z,0
2018-01-02T01:05:45.555Z,0
2018-01-02T01:06:54.141Z,0
2018-01-02T01:08:02.744Z,0
2018-01-02T01:09:11.352Z,0
2018-01-02T01:10:19.944Z,0
2018-01-02T01:11:28.547Z,0
2018-01-02T01:12:37.164Z,0
2018-01-02T01:13:45.758Z,0
2018-01-02T01:14:54.351Z,0
2018-01-02T01:16:02.962Z,0
2018-01-02T01:17:11.561Z,0
2018-01-02T01:18:20.155Z,0
2018-01-02T01:19:28.762Z,0
2018-01-02T01:20:37.362Z,0
2018-01-02T01:21:45.968Z,0
2018-01-02T01:22:54.562Z,0
2018-01-02T01:24:03.158Z,0
2018-01-02T01:25:11.767Z,0
2018-01-02T01:26:20.366Z,0
2018-01-02T01:27:28.953Z,0
2018-01-02T01:28:37.565Z,0
2018-01-02T01:29:46.169Z,0
2018-01-02T01:30:54.763Z,0
2018-01-02T01:32:03.369Z,0
2018-01-02T01:33:11.975Z,0
2018-01-02T01:34:20.564Z,0
2018-01-02T01:35:29.167Z,0
2018-01-02T01:36:37.765Z,0
2018-01-02T01:37:46.377Z,0
2018-01-02T01:38:54.979Z,0
2018-01-02T01:40:03.568Z,0
2018-01-02T01:41:12.176Z,0
2018-01-02T01:42:20.783Z,0
2018-01-02T01:43:29.373Z,0
2018-01-02T01:44:37.978Z,0
2018-01-02T01:45:46.584Z,0
2018-01-02T01:46:55.178Z,0
2018-01-02T01:48:03.787Z,0
2018-01-02T01:49:12.668Z,0
2018-01-02T01:50:21.265Z,0
2018-01-02T01:51:30.132Z,0
2018-01-02T01:52:38.720Z,0
2018-01-02T01:53:47.322Z,0
2018-01-02T01:54:55.934Z,0
2018-01-02T01:56:04.521Z,0
2018-01-02T01:57:13.116Z,0
2018-01-02T01:58:21.728Z,0
2018-01-02T01:59:30.326Z,0
2018-01-02T02:00:38.924Z,0
2018-01-02T02:01:47.536Z,0
2018-01-02T02:02:56.141Z,0
2018-01-02T02:04:04.726Z,0
2018-01-02T02:05:13.337Z,0
2018-01-02T02:06:21.939Z,0
2018-01-02T02:07:30.528Z,0
2018-01-02T02:08:39.394Z,0
2018-01-02T02:09:48.005Z,0
2018-01-02T02:10:56.592Z,0
2018-01-02T02:12:05.194Z,0
2018-01-02T02:13:13.807Z,0
2018-01-02T02:14:22.395Z,0
2018-01-02T02:15:30.994Z,0
2018-01-02T02:16:39.607Z,0
2018-01-02T02:17:48.464Z,0
2018-01-02T02:18:57.055Z,0
2018-01-02T02:20:05.659Z,0
2018-01-02T02:21:14.265Z,0
2018-01-02T02:22:22.873Z,0
2018-01-02T02:23:31.467Z,0
2018-01-02T02:24:40.063Z,0
2018-01-02T02:25:48.675Z,0
2018-01-02T02:26:57.269Z,0
2018-01-02T02:28:05.864Z,0
2018-01-02T02:29:14.474Z,0
2018-01-02T02:30:23.073Z,0
2018-01-02T02:31:31.662Z,0
2018-01-02T02:32:40.276Z,0
2018-01-02T02:33:48.885Z,0
2018-01-02T02:34:57.485Z,0
2018-01-02T02:36:06.082Z,0
2018-01-02T02:37:14.678Z,0
2018-01-02T02:38:23.289Z,0
2018-01-02T02:39:31.887Z,0
2018-01-02T02:40:40.473Z,0
2018-01-02T02:41:49.087Z,0
2018-01-02T02:42:57.688Z,0
2018-01-02T02:44:06.280Z,0
2018-01-02T02:45:15.145Z,0
2018-01-02T02:46:23.756Z,0
2018-01-02T02:47:32.345Z,0
2018-01-02T02:48:40.948Z,0
2018-01-02T02:49:49.546Z,0
2018-01-02T02:50:58.155Z,0
2018-01-02T02:52:07.022Z,0
2018-01-02T02:53:15.608Z,0
2018-01-02T02:54:24.216Z,0
2018-01-02T02:55:32.825Z,0
2018-01-02T02:56:41.417Z,0
2018-01-02T02:57:50.023Z,0
2018-01-02T02:58:58.633Z,0
2018-01-02T03:00:07.224Z,0
2018-01-02T03:01:15.820Z,0
2018-01-02T03:02:24.437Z,0
2018-01-02T03:03:33.032Z,0
2018-01-02T03:04:41.641Z,0
2018-01-02T03:05:50.229Z,0
2018-01-02T03:06:58.828Z,0
2018-01-02T03:08:07.441Z,0
2018-01-02T03:09:16.029Z,0
2018-01-02T03:10:24.624Z,0
2018-01-02T03:11:33.237Z,0
2018-01-02T03:12:41.832Z,0
2018-01-02T03:13:50.426Z,0
2018-01-02T03:14:59.038Z,0
2018-01-02T03:16:07.635Z,0
2018-01-02T03:17:16.487Z,0
2018-01-02T03:18:25.352Z,0
2018-01-02T03:19:33.947Z,0
2018-01-02T03:20:42.562Z,0
2018-01-02T03:21:51.161Z,0
2018-01-02T03:22:59.750Z,0
2018-01-02T03:24:08.362Z,0
2018-01-02T03:25:16.960Z,0
2018-01-02T03:26:25.549Z,0
2018-01-02T03:27:34.160Z,0
2018-01-02T03:28:42.767Z,0
2018-01-02T03:29:51.355Z,0
2018-01-02T03:30:59.965Z,0
2018-01-02T03:32:08.569Z,0
2018-01-02T03:33:17.431Z,0
2018-01-02T03:34:26.022Z,0
2018-01-02T03:35:34.864Z,0
2018-01-02T03:36:43.477Z,0
2018-01-02T03:37:52.077Z,0
2018-01-02T03:39:00.668Z,0
2018-01-02T03:40:09.276Z,0
2018-01-02T03:41:18.148Z,0
2018-01-02T03:42:26.735Z,0
2018-01-02T03:43:35.337Z,0
2018-01-02T03:44:43.945Z,0
2018-01-02T03:45:52.538Z,0
2018-01-02T03:47:01.151Z,0
2018-01-02T03:48:09.732Z,0
2018-01-02T03:49:18.338Z,0
2018-01-02T03:50:26.948Z,0
2018-01-02T03:51:35.537Z,0
2018-01-02T03:52:44.140Z,0
2018-01-02T03:53:52.750Z,0
2018-01-02T03:55:01.349Z,0
2018-01-02T03:56:10.201Z,0
2018-01-02T03:57:18.819Z,0
2018-01-02T03:58:27.409Z,0
2018-01-02T03:59:36.003Z,0
2018-01-02T04:00:44.612Z,0
2018-01-02T04:01:53.211Z,0
2018-01-02T04:03:01.803Z,0
2018-01-02T04:04:10.416Z,0
2018-01-02T04:05:19.018Z,0
2018-01-02T04:06:27.608Z,0
2018-01-02T04:07:36.213Z,0
2018-01-02T04:08:44.818Z,0
2018-01-02T04:09:53.408Z,0
2018-01-02T04:11:02.025Z,0
2018-01-02T04:12:10.624Z,0
2018-01-02T04:13:19.210Z,0
2018-01-02T04:14:27.810Z,0
2018-01-02T04:15:36.419Z,0
2018-01-02T04:16:45.013Z,0
2018-01-02T04:17:53.624Z,0
2018-01-02T04:19:02.466Z,0
2018-01-02T04:20:11.068Z,0
2018-01-02T04:21:19.676Z,0
2018-01-02T04:22:28.264Z,0
2018-01-02T04:23:36.862Z,0
2018-01-02T04:24:45.471Z,0
2018-01-02T04:25:54.066Z,0
2018-01-02T04:27:02.660Z,0
2018-01-02T04:28:11.273Z,0
2018-01-02T04:29:19.869Z,0
2018-01-02T04:30:28.462Z,0
2018-01-02T04:31:37.067Z,0
2018-01-02T04:32:45.665Z,0
2018-01-02T04:33:54.277Z,0
2018-01-02T04:35:02.870Z,0
2018-01-02T04:36:11.466Z,0
2018-01-02T04:37:20.077Z,0
2018-01-02T04:38:28.676Z,0
2018-01-02T04:39:37.260Z,0
2018-01-02T04:40:46.139Z,0
2018-01-02T04:41:54.745Z,0
2018-01-02T04:43:03.331Z,0
2018-01-02T04:44:11.934Z,0
2018-01-02T04:45:20.544Z,0
2018-01-02T04:46:29.142Z,0
2018-01-02T04:47:37.741Z,0
2018-01-02T04:48:46.333Z,0
2018-01-02T04:49:54.944Z,0
2018-01-02T04:51:03.817Z,0
2018-01-02T04:52:12.407Z,0
2018-01-02T04:53:21.012Z,0
2018-01-02T04:54:29.623Z,0
2018-01-02T04:55:38.208Z,0
2018-01-02T04:56:46.819Z,0
2018-01-02T04:57:55.428Z,0
2018-01-02T04:59:04.024Z,0
2018-01-02T05:00:12.880Z,0
2018-01-02T05:01:21.733Z,0
2018-01-02T05:02:30.341Z,0
2018-01-02T05:03:38.957Z,0
2018-01-02T05:04:47.537Z,0
2018-01-02T05:05:56.148Z,0
2018-01-02T05:07:04.757Z,0
2018-01-02T05:08:13.351Z,0
2018-01-02T05:09:22.208Z,0
2018-01-02T05:10:30.821Z,0
2018-01-02T05:11:39.416Z,0
2018-01-02T05:12:48.016Z,0
2018-01-02T05:13:56.626Z,0
2018-01-02T05:15:05.225Z,0
2018-01-02T05:16:13.835Z,0
2018-01-02T05:17:22.431Z,0
2018-01-02T05:18:31.022Z,0
2018-01-02T05:19:39.637Z,0
2018-01-02T05:20:48.230Z,0
2018-01-02T05:21:56.828Z,0
2018-01-02T05:23:05.437Z,0
2018-01-02T05:24:14.036Z,0
2018-01-02T05:25:22.629Z,0
2018-01-02T05:26:31.240Z,0
2018-01-02T05:27:39.842Z,0
2018-01-02T05:28:48.434Z,0
2018-01-02T05:29:57.041Z,0
2018-01-02T05:31:05.632Z,0
2018-01-02T05:32:14.246Z,0
2018-01-02T05:33:22.845Z,0
2018-01-02T05:34:31.437Z,0
2018-01-02T05:35:40.048Z,0
2018-01-02T05:36:48.651Z,0
2018-01-02T05:37:57.243Z,0
2018-01-02T05:39:05.852Z,0
2018-01-02T05:40:14.458Z,0
2018-01-02T05:41:23.053Z,0
2018-01-02T05:42:31.651Z,0
2018-01-02T05:43:40.524Z,0
2018-01-02T05:44:49.124Z,0
2018-01-02T05:45:57.730Z,0
2018-01-02T05:47:06.317Z,0
2018-01-02T05:48:14.927Z,0
2018-01-02T05:49:23.536Z,0
2018-01-02T05:50:32.132Z,0
2018-01-02T05:51:40.732Z,0
2018-01-02T05:52:49.346Z,0
2018-01-02T05:53:57.935Z,0
2018-01-02T05:55:07.050Z,0
2018-01-02T05:56:15.662Z,0
2018-01-02T05:57:24.261Z,0
2018-01-02T05:58:32.855Z,0
2018-01-02T05:59:41.464Z,0
2018-01-02T06:00:50.067Z,0
2018-01-02T06:01:58.656Z,0
2018-01-02T06:03:07.273Z,0
2018-01-02T06:04:15.875Z,0
2018-01-02T06:05:24.476Z,0
2018-01-02T06:06:33.080Z,0
2018-01-02T06:07:41.692Z,0
2018-01-02T06:08:50.282Z,0
2018-01-02T06:09:58.883Z,0
2018-01-02T06:11:07.497Z,0
2018-01-02T06:12:16.088Z,0
2018-01-02T06:13:24.689Z,0
2018-01-02T06:14:33.286Z,0
2018-01-02T06:15:41.896Z,0
2018-01-02T06:16:50.506Z,0
2018-01-02T06:17:59.093Z,0
2018-01-02T06:19:07.696Z,0
2018-01-02T06:20:16.307Z,0
2018-01-02T06:21:24.899Z,0
2018-01-02T06:22:33.757Z,0
2018-01-02T06:23:42.369Z,0
2018-01-02T06:24:50.964Z,0
2018-01-02T06:25:59.560Z,0
2018-01-02T06:27:08.173Z,0
2018-01-02T06:28:17.031Z,0
2018-01-02T06:29:25.641Z,0
2018-01-02T06:30:34.231Z,0
2018-01-02T06:31:42.830Z,0
2018-01-02T06:32:51.442Z,0
2018-01-02T06:34:00.041Z,0
2018-01-02T06:35:08.636Z,0
2018-01-02T06:36:17.248Z,0
2018-01-02T06:37:25.848Z,0
2018-01-02T06:38:34.951Z,0
2018-01-02T06:39:43.563Z,0
2018-01-02T06:40:52.168Z,0
2018-01-02T06:42:00.758Z,0
2018-01-02T06:43:09.367Z,0
2018-01-02T06:44:17.964Z,0
2018-01-02T06:45:26.580Z,0
2018-01-02T06:46:35.176Z,0
2018-01-02T06:47:43.768Z,0
2018-01-02T06:48:52.377Z,0
2018-01-02T06:50:00.982Z,0
2018-01-02T06:51:09.571Z,0
2018-01-02T06:52:18.181Z,0
2018-01-02T06:53:26.790Z,0
2018-01-02T06:54:35.380Z,0
2018-01-02T06:55:44.244Z,0
2018-01-02T06:56:52.857Z,0
2018-01-02T06:58:01.455Z,0
2018-01-02T06:59:10.058Z,0
2018-01-02T07:00:18.651Z,0
2018-01-02T07:01:27.307Z,0
2018-01-02T07:02:35.868Z,0
2018-01-02T07:03:44.718Z,0
2018-01-02T07:04:53.316Z,0
2018-01-02T07:06:01.929Z,0
2018-01-02T07:07:10.522Z,0
2018-01-02T07:08:19.124Z,0
2018-01-02T07:09:27.735Z,0
2018-01-02T07:10:36.585Z,0
2018-01-02T07:11:45.179Z,0
2018-01-02T07:12:53.784Z,0
2018-01-02T07:14:02.388Z,0
2018-01-02T07:15:11.027Z,0
2018-01-02T07:16:19.587Z,0
2018-01-02T07:17:28.184Z,0
2018-01-02T07:18:36.795Z,0
2018-01-02T07:19:45.392Z,0
2018-01-02T07:20:53.987Z,0
2018-01-02T07:22:02.598Z,0
2018-01-02T07:23:11.196Z,0
2018-01-02T07:24:19.789Z,0
2018-01-02T07:25:28.398Z,0
2018-01-02T07:26:37.006Z,0
2018-01-02T07:27:45.610Z,0
2018-01-02T07:28:54.212Z,0
2018-01-02T07:30:03.329Z,0
2018-01-02T07:31:11.937Z,0
2018-01-02T07:32:20.538Z,0
2018-01-02T07:33:29.129Z,0
2018-01-02T07:34:37.743Z,0
2018-01-02T07:35:46.602Z,0
2018-01-02T07:36:55.197Z,0
2018-01-02T07:38:03.803Z,0
2018-01-02T07:39:12.416Z,5
2018-01-02T07:40:21.003Z,5
2018-01-02T07:41:29.609Z,5
2018-01-02T07:42:38.207Z,5
2018-01-02T07:43:46.821Z,5
2018-01-02T07:44:55.425Z,5
2018-01-02T07:46:04.016Z,5
2018-01-02T07:47:12.639Z,0
2018-01-02T07:48:21.236Z,0
2018-01-02T07:49:29.826Z,0
2018-01-02T07:50:38.429Z,5
2018-01-02T07:51:47.036Z,0
2018-01-02T07:52:55.632Z,0
2018-01-02T07:54:04.234Z,5
2018-01-02T07:55:12.849Z,5
2018-01-02T07:56:21.441Z,5
2018-01-02T07:57:30.039Z,5
2018-01-02T07:58:38.648Z,5
2018-01-02T07:59:47.246Z,0
2018-01-02T08:00:55.837Z,0
2018-01-02T08:02:04.448Z,0
2018-01-02T08:03:13.055Z,5
2018-01-02T08:04:21.645Z,10
2018-01-02T08:05:30.252Z,15
2018-01-02T08:06:38.857Z,20
2018-01-02T08:07:47.451Z,20
2018-01-02T08:08:56.053Z,20
2018-01-02T08:10:04.928Z,20
2018-01-02T08:11:13.521Z,25
2018-01-02T08:12:22.130Z,25
2018-01-02T08:13:30.723Z,25
2018-01-02T08:14:39.332Z,25
2018-01-02T08:15:47.942Z,25
2018-01-02T08:16:56.531Z,25
2018-01-02T08:18:05.136Z,25
2018-01-02T08:19:13.747Z,25
2018-01-02T08:20:22.341Z,30
2018-01-02T08:21:31.203Z,30
2018-01-02T08:22:39.816Z,25
2018-01-02T08:23:48.413Z,25
2018-01-02T08:24:57.006Z,30
2018-01-02T08:26:05.612Z,35
2018-01-02T08:27:14.215Z,35
2018-01-02T08:28:22.825Z,30
2018-01-02T08:29:31.417Z,25
2018-01-02T08:30:40.019Z,20
2018-01-02T08:31:48.627Z,15
2018-01-02T08:32:57.225Z,15
2018-01-02T08:34:05.821Z,15
2018-01-02T08:35:14.443Z,15
2018-01-02T08:36:23.031Z,15
2018-01-02T08:37:31.621Z,15
2018-01-02T08:38:40.235Z,25
2018-01-02T08:39:48.840Z,25
2018-01-02T08:40:57.442Z,35
2018-01-02T08:42:06.046Z,35
2018-01-02T08:43:14.640Z,30
2018-01-02T08:44:23.253Z,30
2018-01-02T08:45:31.852Z,25
2018-01-02T08:46:40.443Z,25
2018-01-02T08:47:49.055Z,35
2018-01-02T08:48:57.660Z,25
2018-01-02T08:50:06.252Z,30
2018-01-02T08:51:14.858Z,30
2018-01-02T08:52:23.466Z,20
2018-01-02T08:53:32.055Z,20
2018-01-02T08:54:40.663Z,25
2018-01-02T08:55:49.261Z,35
2018-01-02T08:56:57.870Z,40
2018-01-02T08:58:06.477Z,35
2018-01-02T08:59:15.070Z,35
2018-01-02T09:00:23.681Z,35
2018-01-02T09:01:32.290Z,35
2018-01-02T09:02:41.143Z,40
2018-01-02T09:03:49.750Z,50
2018-01-02T09:04:58.362Z,55
2018-01-02T09:06:06.954Z,55
2018-01-02T09:07:15.555Z,60
2018-01-02T09:08:24.426Z,65
2018-01-02T09:09:33.022Z,65
2018-01-02T09:10:41.629Z,65
2018-01-02T09:11:50.226Z,65
2018-01-02T09:12:58.829Z,70
2018-01-02T09:14:07.444Z,70
2018-01-02T09:15:16.032Z,70
2018-01-02T09:16:24.633Z,70
2018-01-02T09:17:33.244Z,70
2018-01-02T09:18:41.843Z,75
2018-01-02T09:19:50.440Z,75
2018-01-02T09:20:59.057Z,65
2018-01-02T09:22:07.657Z,55
2018-01-02T09:23:16.248Z,60
2018-01-02T09:24:24.860Z,70
2018-01-02T09:25:33.461Z,75
2018-01-02T09:26:42.074Z,75
2018-01-02T09:27:50.681Z,80
2018-01-02T09:28:59.279Z,85
2018-01-02T09:30:08.155Z,85
2018-01-02T09:31:16.757Z,85
2018-01-02T09:32:25.397Z,85
2018-01-02T09:33:34.041Z,85
2018-01-02T09:34:42.907Z,85
2018-01-02T09:35:51.497Z,85
2018-01-02T09:37:00.105Z,85
2018-01-02T09:38:08.713Z,95
2018-01-02T09:39:17.313Z,105
2018-01-02T09:40:25.911Z,110
2018-01-02T09:41:34.503Z,105
2018-01-02T09:42:43.117Z,105
2018-01-02T09:43:51.753Z,95
2018-01-02T09:45:00.316Z,100
2018-01-02T09:46:08.926Z,130
2018-01-02T09:47:17.534Z,125
2018-01-02T09:48:26.129Z,130
2018-01-02T09:49:34.737Z,130
2018-01-02T09:50:43.350Z,125
2018-01-02T09:51:51.941Z,120
2018-01-02T09:53:00.542Z,115
2018-01-02T09:54:09.155Z,110
2018-01-02T09:55:17.755Z,90
2018-01-02T09:56:26.354Z,65
2018-01-02T09:57:34.967Z,60
2018-01-02T09:58:43.567Z,55
2018-01-02T09:59:52.157Z,55
2018-01-02T10:01:00.773Z,55
2018-01-02T10:02:09.375Z,55
2018-01-02T10:03:18.482Z,50
2018-01-02T10:04:27.093Z,50
2018-01-02T10:05:35.704Z,45
2018-01-02T10:06:44.294Z,45
2018-01-02T10:07:52.902Z,45
2018-01-02T10:09:01.501Z,45
2018-01-02T10:10:10.114Z,50
2018-01-02T10:11:18.721Z,55
2018-01-02T10:12:27.311Z,60
2018-01-02T10:13:35.923Z,65
2018-01-02T10:14:44.534Z,70
2018-01-02T10:15:53.383Z,80
2018-01-02T10:17:01.991Z,95
2018-01-02T10:18:10.603Z,105
2018-01-02T10:19:19.199Z,110
2018-01-02T10:20:27.794Z,110
2018-01-02T10:21:36.408Z,110
2018-01-02T10:22:45.006Z,105
2018-01-02T10:23:53.611Z,100
2018-01-02T10:25:02.206Z,95
2018-01-02T10:26:10.810Z,95
2018-01-02T10:27:19.424Z,85
2018-01-02T10:28:28.013Z,90
2018-01-02T10:29:36.612Z,95
2018-01-02T10:30:45.229Z,105
2018-01-02T10:31:54.083Z,110
2018-01-02T10:33:02.684Z,115
2018-01-02T10:34:11.298Z,110
2018-01-02T10:35:19.933Z,110
2018-01-02T10:36:28.496Z,110
2018-01-02T10:37:37.110Z,110
2018-01-02T10:38:45.980Z,105
2018-01-02T10:39:54.590Z,105
2018-01-02T10:41:03.444Z,105
2018-01-02T10:42:12.038Z,105
2018-01-02T10:43:20.915Z,105
2018-01-02T10:44:29.516Z,105
2018-01-02T10:45:38.106Z,100
2018-01-02T10:46:46.722Z,105
2018-01-02T10:47:55.324Z,110
2018-01-02T10:49:03.920Z,110
2018-01-02T10:50:12.793Z,105
2018-01-02T10:51:21.400Z,105
2018-01-02T10:52:30.000Z,110
2018-01-02T10:53:38.667Z,110
2018-01-02T10:54:47.260Z,110
2018-01-02T10:55:55.876Z,110
2018-01-02T10:57:04.479Z,110
2018-01-02T10:58:13.072Z,115
2018-01-02T10:59:21.678Z,115
2018-01-02T11:00:30.289Z,115
2018-01-02T11:01:38.880Z,115
2018-01-02T11:02:47.487Z,115
2018-01-02T11:03:56.097Z,115
2018-01-02T11:05:04.693Z,115
2018-01-02T11:06:13.293Z,120
2018-01-02T11:07:21.892Z,125
2018-01-02T11:08:30.499Z,115
2018-01-02T11:09:39.113Z,110
2018-01-02T11:10:47.964Z,105
2018-01-02T11:11:56.569Z,100
2018-01-02T11:13:05.184Z,95
2018-01-02T11:14:13.778Z,95
2018-01-02T11:15:22.379Z,95
2018-01-02T11:16:30.996Z,100
2018-01-02T11:17:39.593Z,100
2018-01-02T11:18:48.192Z,100
2018-01-02T11:19:56.804Z,100
2018-01-02T11:21:05.406Z,100
2018-01-02T11:22:14.016Z,95
2018-01-02T11:23:22.605Z,100
2018-01-02T11:24:31.202Z,95
2018-01-02T11:25:39.818Z,90
2018-01-02T11:26:48.416Z,85
2018-01-02T11:27:57.015Z,70
2018-01-02T11:29:05.696Z,75
2018-01-02T11:30:14.298Z,75
2018-01-02T11:31:22.889Z,70
2018-01-02T11:32:31.503Z,75
2018-01-02T11:33:40.365Z,80
2018-01-02T11:34:48.974Z,80
2018-01-02T11:35:57.847Z,95
2018-01-02T11:37:06.440Z,95
2018-01-02T11:38:15.056Z,95
2018-01-02T11:39:23.660Z,90
2018-01-02T11:40:32.249Z,85
2018-01-02T11:41:40.865Z,85
2018-01-02T11:42:49.469Z,85
2018-01-02T11:43:58.066Z,85
2018-01-02T11:45:06.676Z,75
2018-01-02T11:46:15.287Z,65
2018-01-02T11:47:23.877Z,60
2018-01-02T11:48:32.483Z,60
2018-01-02T11:49:41.094Z,65
2018-01-02T11:50:49.699Z,70
2018-01-02T11:51:58.665Z,65
2018-01-02T11:53:07.330Z,65
2018-01-02T11:54:15.928Z,75
2018-01-02T11:55:24.539Z,85
2018-01-02T11:56:33.151Z,90
2018-01-02T11:57:41.754Z,90
2018-01-02T11:58:50.351Z,85
2018-01-02T11:59:58.971Z,75
2018-01-02T12:01:07.835Z,75
2018-01-02T12:02:16.430Z,75
2018-01-02T12:03:25.329Z,65
2018-01-02T12:04:33.938Z,80
2018-01-02T12:05:42.538Z,90
2018-01-02T12:06:51.140Z,90
2018-01-02T12:07:59.732Z,75
2018-01-02T12:09:08.342Z,55
2018-01-02T12:10:16.947Z,55
2018-01-02T12:11:25.543Z,45
2018-01-02T12:12:34.553Z,35
2018-01-02T12:13:43.248Z,40
2018-01-02T12:14:51.902Z,40
2018-01-02T12:16:00.505Z,35
2018-01-02T12:17:09.127Z,30
2018-01-02T12:18:17.727Z,30
2018-01-02T12:19:26.322Z,35
2018-01-02T12:20:34.921Z,40
2018-01-02T12:21:43.529Z,40
2018-01-02T12:22:53.922Z,40
2018-01-02T12:24:02.635Z,40
2018-01-02T12:25:11.783Z,40
2018-01-02T12:26:20.400Z,45
2018-01-02T12:27:29.364Z,45
2018-01-02T12:28:37.964Z,60
2018-01-02T12:29:46.909Z,80
2018-01-02T12:30:55.771Z,95
2018-01-02T12:32:04.373Z,100
2018-01-02T12:33:12.983Z,100
2018-01-02T12:34:21.583Z,95
2018-01-02T12:35:30.193Z,95
2018-01-02T12:36:38.785Z,95
2018-01-02T12:37:47.384Z,85
2018-01-02T12:38:55.999Z,70
2018-01-02T12:40:04.869Z,60
2018-01-02T12:41:13.468Z,55
2018-01-02T12:42:22.080Z,55
2018-01-02T12:43:30.684Z,55
2018-01-02T12:44:39.276Z,55
2018-01-02T12:45:47.893Z,55
2018-01-02T12:46:56.750Z,45
2018-01-02T12:48:05.605Z,40
2018-01-02T12:49:14.213Z,40
2018-01-02T12:50:22.808Z,45
2018-01-02T12:51:31.463Z,50
2018-01-02T12:52:40.028Z,45
2018-01-02T12:53:48.622Z,45
2018-01-02T12:54:57.493Z,50
2018-01-02T12:56:06.098Z,50
2018-01-02T12:57:14.692Z,60
2018-01-02T12:58:23.299Z,80
2018-01-02T12:59:31.909Z,90
2018-01-02T13:00:40.509Z,90
2018-01-02T13:01:49.108Z,90
2018-01-02T13:02:57.720Z,90
2018-01-02T13:04:06.322Z,85
2018-01-02T13:05:14.925Z,85
2018-01-02T13:06:23.514Z,80
2018-01-02T13:07:32.390Z,90
2018-01-02T13:08:40.999Z,85
2018-01-02T13:09:49.853Z,80
2018-01-02T13:10:58.470Z,80
2018-01-02T13:12:07.083Z,85
2018-01-02T13:13:15.930Z,75
2018-01-02T13:14:24.530Z,80
2018-01-02T13:15:33.141Z,75
2018-01-02T13:16:41.742Z,65
2018-01-02T13:17:50.336Z,50
2018-01-02T13:18:58.938Z,50
2018-01-02T13:20:07.540Z,45
2018-01-02T13:21:16.160Z,40
2018-01-02T13:22:24.749Z,40
2018-01-02T13:23:33.351Z,50
2018-01-02T13:24:41.963Z,55
2018-01-02T13:25:50.559Z,50
2018-01-02T13:26:59.155Z,50
2018-01-02T13:28:07.803Z,55
2018-01-02T13:29:16.405Z,45
2018-01-02T13:30:25.012Z,40
2018-01-02T13:31:33.648Z,40
2018-01-02T13:32:42.249Z,50
2018-01-02T13:33:50.857Z,60
2018-01-02T13:34:59.452Z,60
2018-01-02T13:36:08.080Z,55
2018-01-02T13:37:16.690Z,60
2018-01-02T13:38:25.293Z,75
2018-01-02T13:39:33.901Z,70
2018-01-02T13:40:42.538Z,65
2018-01-02T13:41:51.213Z,60
2018-01-02T13:43:00.066Z,50
2018-01-02T13:44:08.683Z,50
2018-01-02T13:45:17.301Z,45
2018-01-02T13:46:25.899Z,50
2018-01-02T13:47:34.516Z,45
2018-01-02T13:48:43.148Z,50
2018-01-02T13:49:51.746Z,50
2018-01-02T13:51:00.349Z,45
2018-01-02T13:52:08.970Z,45
2018-01-02T13:53:17.589Z,40
2018-01-02T13:54:26.192Z,35
2018-01-02T13:55:34.807Z,30
2018-01-02T13:56:43.410Z,30
2018-01-02T13:57:52.006Z,30
2018-01-02T13:59:00.626Z,25
2018-01-02T14:00:09.235Z,30
2018-01-02T14:01:17.830Z,30
2018-01-02T14:02:26.442Z,30
2018-01-02T14:03:35.046Z,30
2018-01-02T14:04:43.664Z,30
2018-01-02T14:05:52.266Z,30
2018-01-02T14:07:00.864Z,35
2018-01-02T14:08:09.739Z,35
2018-01-02T14:09:18.413Z,35
2018-01-02T14:10:26.953Z,35
2018-01-02T14:11:35.563Z,35
2018-01-02T14:12:44.192Z,35
2018-01-02T14:13:52.796Z,35
2018-01-02T14:15:01.402Z,30
2018-01-02T14:16:10.052Z,30
2018-01-02T14:17:18.663Z,30
2018-01-02T14:18:27.276Z,25
2018-01-02T14:19:35.868Z,30
2018-01-02T14:20:44.510Z,25
2018-01-02T14:21:53.125Z,25
2018-01-02T14:23:01.724Z,20
2018-01-02T14:24:10.337Z,20
2018-01-02T14:25:18.968Z,20
2018-01-02T14:26:27.568Z,20
2018-01-02T14:27:36.186Z,20
2018-01-02T14:28:44.800Z,25
2018-01-02T14:29:53.410Z,25
2018-01-02T14:31:02.015Z,30
2018-01-02T14:32:10.624Z,30
2018-01-02T14:33:19.229Z,35
2018-01-02T14:34:27.846Z,35
2018-01-02T14:35:36.741Z,30
2018-01-02T14:36:45.605Z,35
2018-01-02T14:37:54.217Z,35
2018-01-02T14:39:02.815Z,40
2018-01-02T14:40:11.412Z,40
2018-01-02T14:41:20.030Z,40
2018-01-02T14:42:28.633Z,40
2018-01-02T14:43:37.482Z,40
2018-01-02T14:44:46.095Z,30
2018-01-02T14:45:54.700Z,30
2018-01-02T14:47:03.305Z,35
2018-01-02T14:48:11.900Z,40
2018-01-02T14:49:20.497Z,40
2018-01-02T14:50:29.113Z,35
2018-01-02T14:51:37.710Z,30
2018-01-02T14:52:46.301Z,30
2018-01-02T14:53:54.915Z,25
2018-01-02T14:55:03.531Z,25
2018-01-02T14:56:12.114Z,20
2018-01-02T14:57:20.723Z,20
2018-01-02T14:58:29.334Z,20
2018-01-02T14:59:37.923Z,20
2018-01-02T15:00:46.530Z,20
2018-01-02T15:01:55.129Z,15
2018-01-02T15:03:03.742Z,15
2018-01-02T15:04:12.347Z,15
2018-01-02T15:05:20.952Z,15
2018-01-02T15:06:29.549Z,10
2018-01-02T15:07:38.156Z,10
2018-01-02T15:08:46.748Z,10
2018-01-02T15:09:55.350Z,10
2018-01-02T15:11:03.959Z,10
2018-01-02T15:12:12.554Z,10
2018-01-02T15:13:21.162Z,10
2018-01-02T15:14:29.773Z,5
2018-01-02T15:15:38.367Z,5
2018-01-02T15:16:47.238Z,5
2018-01-02T15:17:55.831Z,5
2018-01-02T15:19:04.433Z,5
2018-01-02T15:20:13.049Z,5
2018-01-02T15:21:21.641Z,5
2018-01-02T15:22:30.241Z,5
2018-01-02T15:23:38.856Z,5
2018-01-02T15:24:47.453Z,5
2018-01-02T15:25:56.050Z,5
2018-01-02T15:27:04.919Z,5
2018-01-02T15:28:13.522Z,5
2018-01-02T15:29:22.113Z,5
2018-01-02T15:30:30.726Z,5
2018-01-02T15:31:39.325Z,5
2018-01-02T15:32:47.937Z,0
2018-01-02T15:33:56.532Z,0
2018-01-02T15:35:05.125Z,0
2018-01-02T15:36:13.742Z,0
2018-01-02T15:37:22.345Z,0
2018-01-02T15:38:30.937Z,0
2018-01-02T15:39:39.550Z,0
2018-01-02T15:40:48.153Z,0
2018-01-02T15:41:56.745Z,0
2018-01-02T15:43:05.354Z,0
2018-01-02T15:44:13.965Z,0
2018-01-02T15:45:22.556Z,0
2018-01-02T15:46:31.161Z,0
2018-01-02T15:47:39.768Z,0
2018-01-02T15:48:48.361Z,0
2018-01-02T15:49:56.963Z,0
2018-01-02T15:51:05.576Z,0
2018-01-02T15:52:14.436Z,0
2018-01-02T15:53:23.031Z,0
2018-01-02T15:54:31.640Z,0
2018-01-02T15:55:40.248Z,0
2018-01-02T15:56:48.831Z,0
2018-01-02T15:57:57.449Z,0
2018-01-02T15:59:06.054Z,0
2018-01-02T16:00:14.654Z,0
2018-01-02T16:01:23.254Z,0
2018-01-02T16:02:31.850Z,0
2018-01-02T16:03:40.472Z,0
2018-01-02T16:04:49.072Z,0
2018-01-02T16:05:57.665Z,0
2018-01-02T16:07:06.276Z,0
2018-01-02T16:08:14.879Z,0
2018-01-02T16:09:23.471Z,0
2018-01-02T16:10:32.075Z,0
2018-01-02T16:11:40.685Z,0
2018-01-02T16:12:49.271Z,0
2018-01-02T16:13:57.878Z,0
2018-01-02T16:15:06.474Z,0
2018-01-02T16:16:15.084Z,0
2018-01-02T16:17:23.683Z,0
2018-01-02T16:18:32.273Z,0
2018-01-02T16:19:40.882Z,0
2018-01-02T16:20:49.491Z,0
2018-01-02T16:21:58.082Z,0
2018-01-02T16:23:06.690Z,0
2018-01-02T16:24:15.297Z,0
2018-01-02T16:25:23.892Z,0
2018-01-02T16:26:32.488Z,0
2018-01-02T16:27:41.103Z,0
2018-01-02T16:28:49.697Z,0
2018-01-02T16:29:58.304Z,0
2018-01-02T16:31:06.897Z,0
2018-01-02T16:32:15.502Z,0
2018-01-02T16:33:24.116Z,0
2018-01-02T16:34:32.715Z,0
2018-01-02T16:35:41.316Z,0
2018-01-02T16:36:49.928Z,0